Abernathy, Texas
Current Conditions -  °F | °C
As of 6:13 AM on Sunday 21 Dec 2014 (Local Time) from KLBB Reporting Station
Haze Haze  
Wind Chill: 30°   Ceiling: Unl
Heat Index: 38°   Visibility: 5mi
Dew Point: 36°   Wind: 12mph
Humidity: 93%   Direction: 210°SSW
Pressure: 29.91"   Gusts: NA
Location:  33.83°N, 101.84°W
Report Text: KLBB 211213Z 21010KT 5SM BR SCT004 03/02 A2991 RMK AO2 T00330022
Loading
Personal Weather Stations






























Interactive Weather Map New forecast layout! Learn more

10-Day Weather Forecast

Advertisements
Track Severe Weather on mobile